sensor_id;sensor_type;location;lat;lon;timestamp;P1;durP1;ratioP1;P2;durP2;ratioP2
7104;SDS011;3594;42.152;24.714;2023-02-19T00:01:07;7.03;;;3.90;;
7104;SDS011;3594;42.152;24.714;2023-02-19T00:03:35;8.43;;;3.77;;
7104;SDS011;3594;42.152;24.714;2023-02-19T00:06:01;5.20;;;3.13;;
7104;SDS011;3594;42.152;24.714;2023-02-19T00:08:29;10.17;;;4.53;;
7104;SDS011;3594;42.152;24.714;2023-02-19T00:10:59;9.67;;;5.07;;
7104;SDS011;3594;42.152;24.714;2023-02-19T00:13:25;12.47;;;5.47;;
7104;SDS011;3594;42.152;24.714;2023-02-19T00:15:50;8.33;;;5.20;;
7104;SDS011;3594;42.152;24.714;2023-02-19T00:18:16;10.37;;;5.27;;
7104;SDS011;3594;42.152;24.714;2023-02-19T00:20:41;9.27;;;4.80;;
7104;SDS011;3594;42.152;24.714;2023-02-19T00:23:06;8.97;;;4.87;;
7104;SDS011;3594;42.152;24.714;2023-02-19T00:25:35;11.77;;;5.97;;
7104;SDS011;3594;42.152;24.714;2023-02-19T00:28:01;8.97;;;4.87;;
7104;SDS011;3594;42.152;24.714;2023-02-19T00:30:27;11.27;;;6.17;;
7104;SDS011;3594;42.152;24.714;2023-02-19T00:32:52;8.60;;;5.03;;
7104;SDS011;3594;42.152;24.714;2023-02-19T00:35:19;9.63;;;5.90;;
7104;SDS011;3594;42.152;24.714;2023-02-19T00:37:44;9.50;;;5.07;;
7104;SDS011;3594;42.152;24.714;2023-02-19T00:40:10;12.23;;;5.30;;
7104;SDS011;3594;42.152;24.714;2023-02-19T00:42:35;9.53;;;5.77;;
7104;SDS011;3594;42.152;24.714;2023-02-19T00:45:01;13.57;;;5.80;;
7104;SDS011;3594;42.152;24.714;2023-02-19T00:47:26;8.60;;;5.73;;
7104;SDS011;3594;42.152;24.714;2023-02-19T00:49:51;11.73;;;5.23;;
7104;SDS011;3594;42.152;24.714;2023-02-19T00:52:17;11.17;;;5.40;;
7104;SDS011;3594;42.152;24.714;2023-02-19T00:54:42;9.37;;;5.10;;
7104;SDS011;3594;42.152;24.714;2023-02-19T00:57:08;8.70;;;4.60;;
7104;SDS011;3594;42.152;24.714;2023-02-19T00:59:33;9.03;;;4.73;;
7104;SDS011;3594;42.152;24.714;2023-02-19T01:02:00;12.07;;;4.33;;
7104;SDS011;3594;42.152;24.714;2023-02-19T01:04:26;7.13;;;4.83;;
7104;SDS011;3594;42.152;24.714;2023-02-19T01:06:52;9.90;;;4.90;;
7104;SDS011;3594;42.152;24.714;2023-02-19T01:09:18;8.17;;;3.80;;
7104;SDS011;3594;42.152;24.714;2023-02-19T01:11:43;9.03;;;5.13;;
7104;SDS011;3594;42.152;24.714;2023-02-19T01:14:08;6.07;;;4.40;;
7104;SDS011;3594;42.152;24.714;2023-02-19T01:16:34;9.57;;;4.57;;
7104;SDS011;3594;42.152;24.714;2023-02-19T01:19:00;7.13;;;4.50;;
7104;SDS011;3594;42.152;24.714;2023-02-19T01:21:26;15.53;;;4.67;;
7104;SDS011;3594;42.152;24.714;2023-02-19T01:23:53;6.43;;;4.33;;
7104;SDS011;3594;42.152;24.714;2023-02-19T01:26:20;7.07;;;4.73;;
7104;SDS011;3594;42.152;24.714;2023-02-19T01:28:47;7.33;;;4.73;;
7104;SDS011;3594;42.152;24.714;2023-02-19T01:31:16;8.13;;;4.87;;
7104;SDS011;3594;42.152;24.714;2023-02-19T01:33:45;7.90;;;5.23;;
7104;SDS011;3594;42.152;24.714;2023-02-19T01:36:12;9.20;;;4.57;;
7104;SDS011;3594;42.152;24.714;2023-02-19T01:38:38;7.03;;;4.33;;
7104;SDS011;3594;42.152;24.714;2023-02-19T01:41:05;12.93;;;4.70;;
7104;SDS011;3594;42.152;24.714;2023-02-19T01:43:32;6.37;;;3.90;;
7104;SDS011;3594;42.152;24.714;2023-02-19T01:45:58;8.93;;;4.50;;
7104;SDS011;3594;42.152;24.714;2023-02-19T01:48:26;8.27;;;5.00;;
7104;SDS011;3594;42.152;24.714;2023-02-19T01:51:08;9.23;;;5.30;;
7104;SDS011;3594;42.152;24.714;2023-02-19T01:53:42;6.17;;;4.53;;
7104;SDS011;3594;42.152;24.714;2023-02-19T01:56:10;8.97;;;4.57;;
7104;SDS011;3594;42.152;24.714;2023-02-19T01:58:38;7.73;;;4.53;;
7104;SDS011;3594;42.152;24.714;2023-02-19T02:01:05;7.60;;;4.40;;
7104;SDS011;3594;42.152;24.714;2023-02-19T02:03:32;8.80;;;4.93;;
7104;SDS011;3594;42.152;24.714;2023-02-19T02:06:20;7.83;;;4.67;;
7104;SDS011;3594;42.152;24.714;2023-02-19T02:08:49;12.23;;;4.70;;
7104;SDS011;3594;42.152;24.714;2023-02-19T02:11:36;11.03;;;3.67;;
7104;SDS011;3594;42.152;24.714;2023-02-19T02:14:04;12.47;;;4.03;;
7104;SDS011;3594;42.152;24.714;2023-02-19T02:19:05;8.17;;;4.80;;
7104;SDS011;3594;42.152;24.714;2023-02-19T02:22:01;7.60;;;4.17;;
7104;SDS011;3594;42.152;24.714;2023-02-19T02:24:40;6.43;;;4.40;;
7104;SDS011;3594;42.152;24.714;2023-02-19T02:32:32;7.47;;;4.23;;
7104;SDS011;3594;42.152;24.714;2023-02-19T02:35:04;6.83;;;3.57;;
7104;SDS011;3594;42.152;24.714;2023-02-19T02:37:33;8.47;;;3.80;;
7104;SDS011;3594;42.152;24.714;2023-02-19T02:40:01;7.70;;;3.73;;
7104;SDS011;3594;42.152;24.714;2023-02-19T02:42:28;5.00;;;3.20;;
7104;SDS011;3594;42.152;24.714;2023-02-19T02:44:55;7.17;;;4.00;;
7104;SDS011;3594;42.152;24.714;2023-02-19T02:47:49;5.13;;;3.80;;
7104;SDS011;3594;42.152;24.714;2023-02-19T02:50:21;7.27;;;3.50;;
7104;SDS011;3594;42.152;24.714;2023-02-19T02:52:50;6.93;;;3.93;;
7104;SDS011;3594;42.152;24.714;2023-02-19T02:55:40;7.67;;;4.33;;
7104;SDS011;3594;42.152;24.714;2023-02-19T02:58:08;7.43;;;2.77;;
7104;SDS011;3594;42.152;24.714;2023-02-19T03:00:35;5.43;;;3.30;;
7104;SDS011;3594;42.152;24.714;2023-02-19T03:03:22;5.20;;;3.93;;
7104;SDS011;3594;42.152;24.714;2023-02-19T03:05:50;4.77;;;2.80;;
7104;SDS011;3594;42.152;24.714;2023-02-19T03:08:24;4.37;;;3.10;;
7104;SDS011;3594;42.152;24.714;2023-02-19T03:10:54;4.77;;;3.30;;
7104;SDS011;3594;42.152;24.714;2023-02-19T03:13:29;4.63;;;3.07;;
7104;SDS011;3594;42.152;24.714;2023-02-19T03:16:19;4.20;;;2.80;;
7104;SDS011;3594;42.152;24.714;2023-02-19T03:19:08;5.67;;;3.13;;
7104;SDS011;3594;42.152;24.714;2023-02-19T03:21:44;7.33;;;3.33;;
7104;SDS011;3594;42.152;24.714;2023-02-19T03:24:15;4.63;;;2.87;;
7104;SDS011;3594;42.152;24.714;2023-02-19T03:27:08;3.37;;;2.47;;
7104;SDS011;3594;42.152;24.714;2023-02-19T03:29:37;2.87;;;2.30;;
7104;SDS011;3594;42.152;24.714;2023-02-19T03:32:07;4.40;;;3.00;;
7104;SDS011;3594;42.152;24.714;2023-02-19T03:34:37;3.90;;;2.50;;
7104;SDS011;3594;42.152;24.714;2023-02-19T03:37:16;4.67;;;2.97;;
7104;SDS011;3594;42.152;24.714;2023-02-19T03:39:48;6.93;;;3.27;;
7104;SDS011;3594;42.152;24.714;2023-02-19T03:44:47;6.50;;;2.90;;
7104;SDS011;3594;42.152;24.714;2023-02-19T03:47:27;2.40;;;2.17;;
7104;SDS011;3594;42.152;24.714;2023-02-19T03:50:09;5.57;;;2.60;;
7104;SDS011;3594;42.152;24.714;2023-02-19T03:55:14;6.17;;;2.87;;
7104;SDS011;3594;42.152;24.714;2023-02-19T03:57:49;3.87;;;2.23;;
7104;SDS011;3594;42.152;24.714;2023-02-19T04:00:43;4.33;;;2.10;;
7104;SDS011;3594;42.152;24.714;2023-02-19T04:03:17;1.97;;;1.77;;
7104;SDS011;3594;42.152;24.714;2023-02-19T04:05:51;2.80;;;2.33;;
7104;SDS011;3594;42.152;24.714;2023-02-19T04:08:23;2.40;;;2.20;;
7104;SDS011;3594;42.152;24.714;2023-02-19T04:10:51;3.00;;;2.00;;
7104;SDS011;3594;42.152;24.714;2023-02-19T04:13:21;2.30;;;2.10;;
7104;SDS011;3594;42.152;24.714;2023-02-19T04:15:52;2.70;;;2.27;;
7104;SDS011;3594;42.152;24.714;2023-02-19T04:18:25;3.30;;;2.47;;
7104;SDS011;3594;42.152;24.714;2023-02-19T04:20:54;2.40;;;2.20;;
7104;SDS011;3594;42.152;24.714;2023-02-19T04:23:22;2.60;;;2.23;;
7104;SDS011;3594;42.152;24.714;2023-02-19T04:25:51;2.37;;;2.00;;
7104;SDS011;3594;42.152;24.714;2023-02-19T04:28:23;2.60;;;2.03;;
7104;SDS011;3594;42.152;24.714;2023-02-19T04:30:48;3.30;;;2.53;;
7104;SDS011;3594;42.152;24.714;2023-02-19T04:33:14;3.87;;;2.40;;
7104;SDS011;3594;42.152;24.714;2023-02-19T04:35:39;2.97;;;2.43;;
7104;SDS011;3594;42.152;24.714;2023-02-19T04:38:05;3.30;;;2.47;;
7104;SDS011;3594;42.152;24.714;2023-02-19T04:40:30;3.17;;;2.43;;
7104;SDS011;3594;42.152;24.714;2023-02-19T04:42:56;2.40;;;2.00;;
7104;SDS011;3594;42.152;24.714;2023-02-19T04:45:21;2.50;;;2.07;;
7104;SDS011;3594;42.152;24.714;2023-02-19T04:47:46;3.10;;;2.20;;
7104;SDS011;3594;42.152;24.714;2023-02-19T04:50:12;3.93;;;2.90;;
7104;SDS011;3594;42.152;24.714;2023-02-19T04:52:37;3.30;;;2.47;;
7104;SDS011;3594;42.152;24.714;2023-02-19T04:55:03;2.30;;;2.10;;
7104;SDS011;3594;42.152;24.714;2023-02-19T04:57:29;4.37;;;2.57;;
7104;SDS011;3594;42.152;24.714;2023-02-19T04:59:54;2.20;;;2.00;;
7104;SDS011;3594;42.152;24.714;2023-02-19T05:02:20;2.93;;;2.50;;
7104;SDS011;3594;42.152;24.714;2023-02-19T05:04:45;2.43;;;2.07;;
7104;SDS011;3594;42.152;24.714;2023-02-19T05:07:11;3.80;;;2.17;;
7104;SDS011;3594;42.152;24.714;2023-02-19T05:09:36;2.53;;;1.80;;
7104;SDS011;3594;42.152;24.714;2023-02-19T05:12:02;4.03;;;2.00;;
7104;SDS011;3594;42.152;24.714;2023-02-19T05:14:28;2.30;;;2.10;;
7104;SDS011;3594;42.152;24.714;2023-02-19T05:16:53;5.77;;;2.03;;
7104;SDS011;3594;42.152;24.714;2023-02-19T05:19:18;2.20;;;2.00;;
7104;SDS011;3594;42.152;24.714;2023-02-19T05:21:44;2.70;;;2.23;;
7104;SDS011;3594;42.152;24.714;2023-02-19T05:24:09;2.17;;;1.97;;
7104;SDS011;3594;42.152;24.714;2023-02-19T05:26:35;2.50;;;1.90;;
7104;SDS011;3594;42.152;24.714;2023-02-19T05:29:01;1.87;;;1.67;;
7104;SDS011;3594;42.152;24.714;2023-02-19T05:31:26;3.07;;;2.20;;
7104;SDS011;3594;42.152;24.714;2023-02-19T05:33:54;2.47;;;2.00;;
7104;SDS011;3594;42.152;24.714;2023-02-19T05:36:20;3.30;;;1.97;;
7104;SDS011;3594;42.152;24.714;2023-02-19T05:38:46;1.90;;;1.80;;
7104;SDS011;3594;42.152;24.714;2023-02-19T05:41:13;2.13;;;1.67;;
7104;SDS011;3594;42.152;24.714;2023-02-19T05:43:40;2.10;;;1.87;;
7104;SDS011;3594;42.152;24.714;2023-02-19T05:46:07;2.30;;;1.87;;
7104;SDS011;3594;42.152;24.714;2023-02-19T05:48:33;3.73;;;2.10;;
7104;SDS011;3594;42.152;24.714;2023-02-19T05:51:02;2.20;;;2.00;;
7104;SDS011;3594;42.152;24.714;2023-02-19T05:53:29;2.37;;;2.17;;
7104;SDS011;3594;42.152;24.714;2023-02-19T05:55:55;2.90;;;2.00;;
7104;SDS011;3594;42.152;24.714;2023-02-19T05:58:20;3.93;;;2.37;;
7104;SDS011;3594;42.152;24.714;2023-02-19T06:00:45;2.83;;;2.10;;
7104;SDS011;3594;42.152;24.714;2023-02-19T06:03:11;2.43;;;1.80;;
7104;SDS011;3594;42.152;24.714;2023-02-19T06:05:36;2.43;;;2.13;;
7104;SDS011;3594;42.152;24.714;2023-02-19T06:08:02;1.87;;;1.73;;
7104;SDS011;3594;42.152;24.714;2023-02-19T06:10:27;2.47;;;1.97;;
7104;SDS011;3594;42.152;24.714;2023-02-19T06:12:52;3.65;;;2.10;;
7104;SDS011;3594;42.152;24.714;2023-02-19T06:15:18;3.50;;;2.00;;
7104;SDS011;3594;42.152;24.714;2023-02-19T06:17:44;1.92;;;1.63;;
7104;SDS011;3594;42.152;24.714;2023-02-19T06:20:09;2.78;;;1.90;;
7104;SDS011;3594;42.152;24.714;2023-02-19T06:22:35;2.65;;;2.45;;
7104;SDS011;3594;42.152;24.714;2023-02-19T06:25:00;3.00;;;2.05;;
7104;SDS011;3594;42.152;24.714;2023-02-19T06:27:26;2.70;;;2.35;;
7104;SDS011;3594;42.152;24.714;2023-02-19T06:29:52;2.35;;;2.10;;
7104;SDS011;3594;42.152;24.714;2023-02-19T06:32:17;3.03;;;2.30;;
7104;SDS011;3594;42.152;24.714;2023-02-19T06:34:43;4.22;;;2.72;;
7104;SDS011;3594;42.152;24.714;2023-02-19T06:37:08;2.55;;;2.20;;
7104;SDS011;3594;42.152;24.714;2023-02-19T06:39:33;2.78;;;2.05;;
7104;SDS011;3594;42.152;24.714;2023-02-19T06:41:59;4.85;;;2.78;;
7104;SDS011;3594;42.152;24.714;2023-02-19T06:44:24;3.17;;;2.08;;
7104;SDS011;3594;42.152;24.714;2023-02-19T06:46:50;4.90;;;2.22;;
7104;SDS011;3594;42.152;24.714;2023-02-19T06:49:18;4.03;;;2.47;;
7104;SDS011;3594;42.152;24.714;2023-02-19T06:51:43;3.65;;;2.17;;
7104;SDS011;3594;42.152;24.714;2023-02-19T06:54:09;2.30;;;2.10;;
7104;SDS011;3594;42.152;24.714;2023-02-19T06:56:35;4.20;;;2.40;;
7104;SDS011;3594;42.152;24.714;2023-02-19T06:59:05;12.93;;;2.40;;
7104;SDS011;3594;42.152;24.714;2023-02-19T07:01:34;2.55;;;2.22;;
7104;SDS011;3594;42.152;24.714;2023-02-19T07:04:00;4.90;;;2.60;;
7104;SDS011;3594;42.152;24.714;2023-02-19T07:06:26;2.72;;;1.95;;
7104;SDS011;3594;42.152;24.714;2023-02-19T07:08:54;5.10;;;2.45;;
7104;SDS011;3594;42.152;24.714;2023-02-19T07:11:20;3.08;;;2.47;;
7104;SDS011;3594;42.152;24.714;2023-02-19T07:13:46;3.00;;;2.28;;
7104;SDS011;3594;42.152;24.714;2023-02-19T07:16:12;3.55;;;2.30;;
7104;SDS011;3594;42.152;24.714;2023-02-19T07:18:38;4.68;;;2.35;;
7104;SDS011;3594;42.152;24.714;2023-02-19T07:21:05;4.10;;;2.08;;
7104;SDS011;3594;42.152;24.714;2023-02-19T07:23:32;3.63;;;2.20;;
7104;SDS011;3594;42.152;24.714;2023-02-19T07:25:58;3.42;;;2.33;;
7104;SDS011;3594;42.152;24.714;2023-02-19T07:28:23;3.47;;;2.00;;
7104;SDS011;3594;42.152;24.714;2023-02-19T07:30:49;3.22;;;2.20;;
7104;SDS011;3594;42.152;24.714;2023-02-19T07:33:14;3.50;;;2.35;;
7104;SDS011;3594;42.152;24.714;2023-02-19T07:35:49;4.43;;;2.20;;
7104;SDS011;3594;42.152;24.714;2023-02-19T07:38:18;4.32;;;2.35;;
7104;SDS011;3594;42.152;24.714;2023-02-19T07:40:51;3.72;;;2.50;;
7104;SDS011;3594;42.152;24.714;2023-02-19T07:43:21;2.88;;;2.25;;
7104;SDS011;3594;42.152;24.714;2023-02-19T07:45:47;4.25;;;2.53;;
7104;SDS011;3594;42.152;24.714;2023-02-19T07:48:13;3.92;;;2.33;;
7104;SDS011;3594;42.152;24.714;2023-02-19T07:50:38;5.22;;;2.65;;
7104;SDS011;3594;42.152;24.714;2023-02-19T07:53:04;4.18;;;2.22;;
7104;SDS011;3594;42.152;24.714;2023-02-19T07:55:33;3.50;;;2.50;;
7104;SDS011;3594;42.152;24.714;2023-02-19T07:57:59;3.33;;;2.38;;
7104;SDS011;3594;42.152;24.714;2023-02-19T08:00:25;5.97;;;2.65;;
7104;SDS011;3594;42.152;24.714;2023-02-19T08:02:51;4.68;;;2.90;;
7104;SDS011;3594;42.152;24.714;2023-02-19T08:05:27;6.50;;;2.70;;
7104;SDS011;3594;42.152;24.714;2023-02-19T08:08:07;2.90;;;2.40;;
7104;SDS011;3594;42.152;24.714;2023-02-19T08:10:34;5.15;;;2.65;;
7104;SDS011;3594;42.152;24.714;2023-02-19T08:13:32;5.03;;;2.78;;
7104;SDS011;3594;42.152;24.714;2023-02-19T08:18:26;4.60;;;2.80;;
7104;SDS011;3594;42.152;24.714;2023-02-19T08:20:54;5.95;;;2.78;;
7104;SDS011;3594;42.152;24.714;2023-02-19T08:23:20;4.28;;;2.72;;
7104;SDS011;3594;42.152;24.714;2023-02-19T08:25:46;4.35;;;3.08;;
7104;SDS011;3594;42.152;24.714;2023-02-19T08:28:12;4.40;;;2.53;;
7104;SDS011;3594;42.152;24.714;2023-02-19T08:30:38;9.27;;;3.00;;
7104;SDS011;3594;42.152;24.714;2023-02-19T08:33:05;5.53;;;2.78;;
7104;SDS011;3594;42.152;24.714;2023-02-19T08:35:35;4.55;;;2.90;;
7104;SDS011;3594;42.152;24.714;2023-02-19T08:38:01;5.85;;;3.28;;
7104;SDS011;3594;42.152;24.714;2023-02-19T08:40:27;5.45;;;3.13;;
7104;SDS011;3594;42.152;24.714;2023-02-19T08:42:52;3.75;;;2.75;;
7104;SDS011;3594;42.152;24.714;2023-02-19T08:45:18;4.78;;;2.88;;
7104;SDS011;3594;42.152;24.714;2023-02-19T08:47:43;4.47;;;3.03;;
7104;SDS011;3594;42.152;24.714;2023-02-19T08:50:10;6.57;;;2.70;;
7104;SDS011;3594;42.152;24.714;2023-02-19T08:52:36;4.00;;;2.85;;
7104;SDS011;3594;42.152;24.714;2023-02-19T08:55:02;5.55;;;2.95;;
7104;SDS011;3594;42.152;24.714;2023-02-19T08:57:28;5.00;;;2.78;;
7104;SDS011;3594;42.152;24.714;2023-02-19T08:59:54;4.05;;;2.67;;
7104;SDS011;3594;42.152;24.714;2023-02-19T09:02:23;3.88;;;2.60;;
7104;SDS011;3594;42.152;24.714;2023-02-19T09:04:49;4.68;;;2.80;;
7104;SDS011;3594;42.152;24.714;2023-02-19T09:07:14;4.38;;;2.85;;
7104;SDS011;3594;42.152;24.714;2023-02-19T09:09:40;5.70;;;3.35;;
7104;SDS011;3594;42.152;24.714;2023-02-19T09:12:06;9.45;;;3.55;;
7104;SDS011;3594;42.152;24.714;2023-02-19T09:14:33;4.28;;;2.45;;
7104;SDS011;3594;42.152;24.714;2023-02-19T09:16:59;4.72;;;3.15;;
7104;SDS011;3594;42.152;24.714;2023-02-19T09:19:28;4.97;;;2.97;;
7104;SDS011;3594;42.152;24.714;2023-02-19T09:21:53;3.92;;;2.85;;
7104;SDS011;3594;42.152;24.714;2023-02-19T09:24:19;5.78;;;3.42;;
7104;SDS011;3594;42.152;24.714;2023-02-19T09:26:47;7.22;;;3.15;;
7104;SDS011;3594;42.152;24.714;2023-02-19T09:29:14;4.70;;;2.85;;
7104;SDS011;3594;42.152;24.714;2023-02-19T09:31:39;3.95;;;2.35;;
7104;SDS011;3594;42.152;24.714;2023-02-19T09:34:05;8.10;;;3.40;;
7104;SDS011;3594;42.152;24.714;2023-02-19T09:36:30;4.20;;;2.50;;
7104;SDS011;3594;42.152;24.714;2023-02-19T09:38:57;4.03;;;2.42;;
7104;SDS011;3594;42.152;24.714;2023-02-19T09:41:28;5.35;;;2.58;;
7104;SDS011;3594;42.152;24.714;2023-02-19T09:43:57;4.50;;;2.55;;
7104;SDS011;3594;42.152;24.714;2023-02-19T09:48:49;4.22;;;1.98;;
7104;SDS011;3594;42.152;24.714;2023-02-19T09:51:17;3.38;;;2.20;;
7104;SDS011;3594;42.152;24.714;2023-02-19T09:53:43;2.95;;;2.10;;
7104;SDS011;3594;42.152;24.714;2023-02-19T09:56:13;4.03;;;2.50;;
7104;SDS011;3594;42.152;24.714;2023-02-19T09:58:46;3.97;;;2.42;;
7104;SDS011;3594;42.152;24.714;2023-02-19T10:01:12;3.53;;;2.55;;
7104;SDS011;3594;42.152;24.714;2023-02-19T10:03:38;5.40;;;2.58;;
7104;SDS011;3594;42.152;24.714;2023-02-19T10:06:10;3.20;;;2.08;;
7104;SDS011;3594;42.152;24.714;2023-02-19T10:08:38;3.00;;;2.22;;
7104;SDS011;3594;42.152;24.714;2023-02-19T10:11:04;2.95;;;2.00;;
7104;SDS011;3594;42.152;24.714;2023-02-19T10:13:34;3.25;;;1.80;;
7104;SDS011;3594;42.152;24.714;2023-02-19T10:16:05;4.10;;;2.53;;
7104;SDS011;3594;42.152;24.714;2023-02-19T10:18:37;4.85;;;2.25;;
7104;SDS011;3594;42.152;24.714;2023-02-19T10:21:05;4.35;;;2.60;;
7104;SDS011;3594;42.152;24.714;2023-02-19T10:23:31;3.83;;;2.30;;
7104;SDS011;3594;42.152;24.714;2023-02-19T10:25:57;3.40;;;1.90;;
7104;SDS011;3594;42.152;24.714;2023-02-19T10:28:27;4.53;;;2.35;;
7104;SDS011;3594;42.152;24.714;2023-02-19T10:30:55;2.92;;;1.95;;
7104;SDS011;3594;42.152;24.714;2023-02-19T10:33:22;4.95;;;2.30;;
7104;SDS011;3594;42.152;24.714;2023-02-19T10:38:25;3.60;;;2.40;;
7104;SDS011;3594;42.152;24.714;2023-02-19T10:41:15;4.82;;;2.22;;
7104;SDS011;3594;42.152;24.714;2023-02-19T10:43:50;5.43;;;2.90;;
7104;SDS011;3594;42.152;24.714;2023-02-19T10:48:53;5.45;;;2.40;;
7104;SDS011;3594;42.152;24.714;2023-02-19T10:51:24;2.90;;;2.20;;
7104;SDS011;3594;42.152;24.714;2023-02-19T10:54:06;2.78;;;2.17;;
7104;SDS011;3594;42.152;24.714;2023-02-19T10:56:38;4.07;;;2.45;;
7104;SDS011;3594;42.152;24.714;2023-02-19T11:04:26;4.40;;;2.80;;
7104;SDS011;3594;42.152;24.714;2023-02-19T11:06:55;4.18;;;2.83;;
7104;SDS011;3594;42.152;24.714;2023-02-19T11:11:56;6.90;;;3.38;;
7104;SDS011;3594;42.152;24.714;2023-02-19T11:14:23;6.60;;;3.25;;
7104;SDS011;3594;42.152;24.714;2023-02-19T11:16:53;8.55;;;4.47;;
7104;SDS011;3594;42.152;24.714;2023-02-19T11:22:19;5.35;;;3.13;;
7104;SDS011;3594;42.152;24.714;2023-02-19T11:27:33;6.07;;;3.22;;
7104;SDS011;3594;42.152;24.714;2023-02-19T11:35:44;7.18;;;4.28;;
7104;SDS011;3594;42.152;24.714;2023-02-19T11:38:14;5.88;;;3.33;;
7104;SDS011;3594;42.152;24.714;2023-02-19T11:45:52;5.28;;;3.28;;
7104;SDS011;3594;42.152;24.714;2023-02-19T11:56:53;4.68;;;3.08;;
7104;SDS011;3594;42.152;24.714;2023-02-19T11:59:37;6.05;;;2.95;;
7104;SDS011;3594;42.152;24.714;2023-02-19T12:04:57;3.97;;;2.70;;
7104;SDS011;3594;42.152;24.714;2023-02-19T12:20:57;5.28;;;3.47;;
7104;SDS011;3594;42.152;24.714;2023-02-19T12:38:30;7.93;;;3.80;;
7104;SDS011;3594;42.152;24.714;2023-02-19T12:46:51;6.00;;;3.25;;
7104;SDS011;3594;42.152;24.714;2023-02-19T12:49:25;6.05;;;2.90;;
7104;SDS011;3594;42.152;24.714;2023-02-19T12:51:58;3.97;;;2.70;;
7104;SDS011;3594;42.152;24.714;2023-02-19T12:54:34;7.80;;;3.35;;
7104;SDS011;3594;42.152;24.714;2023-02-19T12:57:05;9.27;;;3.50;;
7104;SDS011;3594;42.152;24.714;2023-02-19T12:59:50;5.82;;;3.53;;
7104;SDS011;3594;42.152;24.714;2023-02-19T13:05:20;5.22;;;3.00;;
7104;SDS011;3594;42.152;24.714;2023-02-19T13:13:03;6.10;;;3.28;;
7104;SDS011;3594;42.152;24.714;2023-02-19T13:18:08;5.80;;;3.08;;
7104;SDS011;3594;42.152;24.714;2023-02-19T13:20:41;5.88;;;2.80;;
7104;SDS011;3594;42.152;24.714;2023-02-19T13:37:02;5.70;;;3.25;;
7104;SDS011;3594;42.152;24.714;2023-02-19T13:39:28;5.55;;;3.60;;
7104;SDS011;3594;42.152;24.714;2023-02-19T13:41:55;6.20;;;3.38;;
7104;SDS011;3594;42.152;24.714;2023-02-19T13:44:29;7.28;;;4.10;;
7104;SDS011;3594;42.152;24.714;2023-02-19T13:46:56;5.28;;;3.20;;
7104;SDS011;3594;42.152;24.714;2023-02-19T13:51:50;4.47;;;2.92;;
7104;SDS011;3594;42.152;24.714;2023-02-19T13:54:22;5.28;;;3.10;;
7104;SDS011;3594;42.152;24.714;2023-02-19T13:57:18;4.50;;;2.97;;
7104;SDS011;3594;42.152;24.714;2023-02-19T13:59:50;5.40;;;2.72;;
7104;SDS011;3594;42.152;24.714;2023-02-19T14:05:01;5.80;;;3.72;;
7104;SDS011;3594;42.152;24.714;2023-02-19T14:07:34;5.63;;;3.33;;
7104;SDS011;3594;42.152;24.714;2023-02-19T14:11:01;9.38;;;4.38;;
7104;SDS011;3594;42.152;24.714;2023-02-19T14:13:53;7.07;;;4.00;;
7104;SDS011;3594;42.152;24.714;2023-02-19T14:16:31;7.95;;;4.57;;
7104;SDS011;3594;42.152;24.714;2023-02-19T14:19:15;6.63;;;3.63;;
7104;SDS011;3594;42.152;24.714;2023-02-19T14:22:00;5.05;;;2.85;;
7104;SDS011;3594;42.152;24.714;2023-02-19T14:24:26;5.70;;;2.85;;
7104;SDS011;3594;42.152;24.714;2023-02-19T14:26:52;4.40;;;2.85;;
7104;SDS011;3594;42.152;24.714;2023-02-19T14:29:20;4.80;;;2.70;;
7104;SDS011;3594;42.152;24.714;2023-02-19T14:31:46;5.03;;;2.80;;
7104;SDS011;3594;42.152;24.714;2023-02-19T14:34:13;8.30;;;3.65;;
7104;SDS011;3594;42.152;24.714;2023-02-19T14:36:43;4.13;;;2.55;;
7104;SDS011;3594;42.152;24.714;2023-02-19T14:39:18;6.95;;;3.38;;
7104;SDS011;3594;42.152;24.714;2023-02-19T14:41:55;5.85;;;3.17;;
7104;SDS011;3594;42.152;24.714;2023-02-19T14:44:51;6.03;;;2.58;;
7104;SDS011;3594;42.152;24.714;2023-02-19T14:47:22;5.25;;;3.08;;
7104;SDS011;3594;42.152;24.714;2023-02-19T14:50:02;5.07;;;2.78;;
7104;SDS011;3594;42.152;24.714;2023-02-19T14:52:33;5.05;;;2.80;;
7104;SDS011;3594;42.152;24.714;2023-02-19T14:57:37;9.38;;;2.75;;
7104;SDS011;3594;42.152;24.714;2023-02-19T15:02:54;5.00;;;3.10;;
7104;SDS011;3594;42.152;24.714;2023-02-19T15:05:31;7.25;;;2.63;;
7104;SDS011;3594;42.152;24.714;2023-02-19T15:08:01;5.10;;;2.90;;
7104;SDS011;3594;42.152;24.714;2023-02-19T15:10:31;6.95;;;2.90;;
7104;SDS011;3594;42.152;24.714;2023-02-19T15:13:00;4.97;;;2.67;;
7104;SDS011;3594;42.152;24.714;2023-02-19T15:15:29;8.70;;;3.20;;
7104;SDS011;3594;42.152;24.714;2023-02-19T15:17:59;6.07;;;2.95;;
7104;SDS011;3594;42.152;24.714;2023-02-19T15:20:33;5.57;;;3.08;;
7104;SDS011;3594;42.152;24.714;2023-02-19T15:23:01;3.63;;;2.55;;
7104;SDS011;3594;42.152;24.714;2023-02-19T15:25:33;5.00;;;2.83;;
7104;SDS011;3594;42.152;24.714;2023-02-19T15:28:17;5.03;;;3.20;;
7104;SDS011;3594;42.152;24.714;2023-02-19T15:30:43;3.45;;;2.55;;
7104;SDS011;3594;42.152;24.714;2023-02-19T15:33:18;4.05;;;2.63;;
7104;SDS011;3594;42.152;24.714;2023-02-19T15:35:50;7.65;;;2.58;;
7104;SDS011;3594;42.152;24.714;2023-02-19T15:38:21;5.38;;;2.88;;
7104;SDS011;3594;42.152;24.714;2023-02-19T15:40:47;4.95;;;3.10;;
7104;SDS011;3594;42.152;24.714;2023-02-19T15:43:22;7.07;;;2.97;;
7104;SDS011;3594;42.152;24.714;2023-02-19T15:45:53;5.20;;;3.15;;
7104;SDS011;3594;42.152;24.714;2023-02-19T15:48:30;4.57;;;3.10;;
7104;SDS011;3594;42.152;24.714;2023-02-19T15:51:12;6.03;;;3.35;;
7104;SDS011;3594;42.152;24.714;2023-02-19T15:53:50;6.63;;;3.65;;
7104;SDS011;3594;42.152;24.714;2023-02-19T15:59:02;8.40;;;3.97;;
7104;SDS011;3594;42.152;24.714;2023-02-19T16:01:37;10.40;;;4.32;;
7104;SDS011;3594;42.152;24.714;2023-02-19T16:04:14;10.07;;;4.18;;
7104;SDS011;3594;42.152;24.714;2023-02-19T16:09:20;6.00;;;3.30;;
7104;SDS011;3594;42.152;24.714;2023-02-19T16:11:51;8.43;;;3.92;;
7104;SDS011;3594;42.152;24.714;2023-02-19T16:17:23;4.70;;;2.88;;
7104;SDS011;3594;42.152;24.714;2023-02-19T16:19:58;6.82;;;3.55;;
7104;SDS011;3594;42.152;24.714;2023-02-19T16:22:26;6.28;;;3.53;;
7104;SDS011;3594;42.152;24.714;2023-02-19T16:25:04;6.97;;;3.67;;
7104;SDS011;3594;42.152;24.714;2023-02-19T16:27:36;5.55;;;3.58;;
7104;SDS011;3594;42.152;24.714;2023-02-19T16:30:21;5.80;;;3.67;;
7104;SDS011;3594;42.152;24.714;2023-02-19T16:35:44;7.22;;;4.30;;
7104;SDS011;3594;42.152;24.714;2023-02-19T16:38:13;7.75;;;4.28;;
7104;SDS011;3594;42.152;24.714;2023-02-19T16:46:16;7.43;;;3.92;;
7104;SDS011;3594;42.152;24.714;2023-02-19T16:48:41;9.27;;;4.47;;
7104;SDS011;3594;42.152;24.714;2023-02-19T16:51:07;9.88;;;4.40;;
7104;SDS011;3594;42.152;24.714;2023-02-19T16:53:32;14.07;;;4.18;;
7104;SDS011;3594;42.152;24.714;2023-02-19T16:55:58;18.00;;;4.93;;
7104;SDS011;3594;42.152;24.714;2023-02-19T16:58:24;10.60;;;4.38;;
7104;SDS011;3594;42.152;24.714;2023-02-19T17:00:49;8.30;;;4.07;;
7104;SDS011;3594;42.152;24.714;2023-02-19T17:03:16;9.07;;;4.40;;
7104;SDS011;3594;42.152;24.714;2023-02-19T17:05:45;14.88;;;5.57;;
7104;SDS011;3594;42.152;24.714;2023-02-19T17:10:58;9.40;;;4.20;;
7104;SDS011;3594;42.152;24.714;2023-02-19T17:13:26;15.25;;;6.50;;
7104;SDS011;3594;42.152;24.714;2023-02-19T17:15:52;10.48;;;4.93;;
7104;SDS011;3594;42.152;24.714;2023-02-19T17:18:18;8.43;;;4.20;;
7104;SDS011;3594;42.152;24.714;2023-02-19T17:20:44;6.18;;;4.13;;
7104;SDS011;3594;42.152;24.714;2023-02-19T17:23:15;7.88;;;4.53;;
7104;SDS011;3594;42.152;24.714;2023-02-19T17:25:40;9.13;;;4.20;;
7104;SDS011;3594;42.152;24.714;2023-02-19T17:28:05;7.95;;;4.05;;
7104;SDS011;3594;42.152;24.714;2023-02-19T17:30:32;7.75;;;3.53;;
7104;SDS011;3594;42.152;24.714;2023-02-19T17:32:58;7.68;;;3.88;;
7104;SDS011;3594;42.152;24.714;2023-02-19T17:35:24;5.13;;;3.55;;
7104;SDS011;3594;42.152;24.714;2023-02-19T17:37:50;7.20;;;3.95;;
7104;SDS011;3594;42.152;24.714;2023-02-19T17:40:23;6.05;;;3.33;;
7104;SDS011;3594;42.152;24.714;2023-02-19T17:42:55;7.80;;;3.40;;